createdAt,value
2022-10-21T00:23:47.461Z,45.70
2022-10-21T00:24:47.358Z,51.05
2022-10-21T00:25:47.260Z,54.32
2022-10-21T02:03:23.296Z,45.30
2022-10-21T02:04:24.483Z,45.30
2022-10-21T02:05:24.507Z,45.32
2022-10-21T02:06:24.508Z,49.77
2022-10-21T02:07:24.593Z,46.37
2022-10-21T02:08:26.188Z,49.17
2022-10-21T02:09:24.539Z,56.37
2022-10-21T02:10:24.449Z,46.58
2022-10-21T02:11:24.470Z,49.44
2022-10-21T02:14:42.977Z,53.08
2022-10-21T02:15:44.197Z,54.83
2022-10-21T02:16:44.227Z,55.83
2022-10-21T02:17:44.157Z,46.72
2022-10-21T02:18:45.040Z,52.49
2022-10-21T02:19:44.989Z,49.65
2022-10-21T02:20:44.214Z,45.42
2022-10-21T02:24:03.123Z,45.35
2022-10-21T02:25:04.277Z,45.32
2022-10-21T02:26:04.238Z,49.79
2022-10-21T02:27:04.253Z,45.70
2022-10-21T02:28:04.235Z,45.69
2022-10-21T02:29:04.301Z,55.45
2022-10-21T02:30:04.261Z,51.49
2022-10-21T02:31:04.212Z,58.61
2022-10-21T02:32:04.228Z,63.32
2022-10-21T02:33:04.203Z,46.41
2022-10-21T02:34:04.213Z,51.24
2022-10-21T02:35:04.249Z,51.04
2022-10-21T02:36:04.257Z,48.26
2022-10-21T02:37:04.216Z,45.15
2022-10-21T02:38:04.176Z,45.15
2022-10-21T02:39:04.177Z,46.09
2022-10-21T02:40:10.885Z,52.69
2022-10-21T02:41:04.173Z,46.43
2022-10-21T02:42:04.142Z,51.00
2022-10-21T02:43:04.154Z,45.80
2022-10-21T02:44:04.137Z,51.92
2022-10-21T02:45:04.112Z,50.58
2022-10-21T02:46:05.144Z,60.30
2022-10-21T02:47:04.171Z,53.30
2022-10-21T02:48:04.104Z,54.63
2022-10-21T02:49:04.101Z,46.55
2022-10-21T02:50:04.073Z,56.65
2022-10-21T02:51:04.074Z,47.25
2022-10-21T02:52:04.085Z,49.71
2022-10-21T02:53:04.077Z,51.73
2022-10-21T02:54:04.067Z,56.02
2022-10-21T02:55:04.051Z,50.69
2022-10-21T02:56:04.055Z,56.15
2022-10-21T02:57:04.070Z,52.11
2022-10-21T02:58:04.041Z,55.03
2022-10-21T02:59:04.035Z,55.27
2022-10-21T03:00:04.025Z,52.60
2022-10-21T03:01:04.068Z,59.08
2022-10-21T03:02:04.032Z,58.64
2022-10-21T03:03:04.005Z,46.29
2022-10-21T03:04:03.970Z,61.20
2022-10-21T03:05:04.988Z,61.89
2022-10-21T03:06:03.957Z,55.70
2022-10-21T03:07:03.989Z,58.52
2022-10-21T03:08:03.964Z,53.63
2022-10-21T03:09:03.979Z,54.06
2022-10-21T03:10:03.966Z,50.48
2022-10-21T03:11:03.962Z,57.43
2022-10-21T03:12:03.942Z,62.17
2022-10-21T03:13:03.894Z,60.62
2022-10-21T03:14:03.916Z,67.91
2022-10-21T03:15:03.956Z,47.67
2022-10-21T03:16:03.896Z,58.00
2022-10-21T03:17:03.897Z,51.02
2022-10-21T03:18:03.860Z,57.64
2022-10-21T03:19:03.880Z,62.94
2022-10-21T03:20:03.876Z,58.72
2022-10-21T03:21:03.906Z,52.37
2022-10-21T03:22:03.849Z,51.99
2022-10-21T03:23:03.835Z,57.45
2022-10-21T03:24:05.804Z,61.06
2022-10-21T03:25:05.818Z,55.15
2022-10-21T03:26:03.835Z,60.80
2022-10-21T03:27:03.786Z,58.66
2022-10-21T03:28:03.804Z,60.44
2022-10-21T03:29:03.785Z,53.06
2022-10-21T03:30:03.798Z,60.38
2022-10-21T03:31:03.835Z,64.24
2022-10-21T03:32:03.758Z,63.96
2022-10-21T03:33:03.755Z,54.09
2022-10-21T03:34:03.759Z,58.23
2022-10-21T03:35:03.728Z,65.62
2022-10-21T03:36:03.730Z,59.27
2022-10-21T03:37:03.750Z,67.10
2022-10-21T03:38:03.726Z,65.86
2022-10-21T03:39:03.712Z,61.36
2022-10-21T03:40:04.635Z,63.21
2022-10-21T03:41:03.694Z,67.32
2022-10-21T03:42:03.694Z,66.21
2022-10-21T03:43:03.685Z,65.73
2022-10-21T03:44:03.685Z,66.53
2022-10-21T03:45:03.679Z,64.32
2022-10-21T03:46:03.669Z,63.86
2022-10-21T03:47:03.660Z,54.44
2022-10-21T04:03:44.421Z,67.27
2022-10-21T04:04:44.401Z,58.64
2022-10-21T04:05:44.391Z,61.25
2022-10-21T04:06:45.500Z,67.38
2022-10-21T04:07:49.351Z,56.20
2022-10-21T04:08:47.540Z,55.42
2022-10-21T04:09:45.523Z,61.22
2022-10-21T04:10:45.568Z,66.45
2022-10-21T04:11:45.562Z,65.95
2022-10-21T04:12:45.478Z,70.10
2022-10-21T04:13:45.550Z,52.16
2022-10-21T04:14:45.477Z,60.69
2022-10-21T04:15:45.519Z,71.03
2022-10-21T04:16:47.929Z,63.70
2022-10-21T04:17:45.489Z,61.62
2022-10-21T04:18:45.459Z,61.08
2022-10-21T04:19:45.455Z,57.10
2022-10-21T04:20:45.482Z,67.12
2022-10-21T04:21:45.493Z,58.89
2022-10-21T04:22:45.445Z,64.29
2022-10-21T04:23:45.379Z,63.16
2022-10-21T04:24:45.422Z,68.45
2022-10-21T04:25:52.054Z,62.79
2022-10-21T04:26:45.425Z,64.20
2022-10-21T04:27:45.384Z,69.26
2022-10-21T04:28:45.359Z,65.83
2022-10-21T04:29:45.344Z,60.04
2022-10-21T04:30:45.344Z,71.05
2022-10-21T04:31:45.446Z,63.56
2022-10-21T04:32:45.345Z,69.73
2022-10-21T04:33:45.350Z,68.38
2022-10-21T04:34:45.307Z,67.79
2022-10-21T04:35:45.337Z,59.42
2022-10-21T04:36:45.302Z,66.35
2022-10-21T04:37:45.368Z,70.28
2022-10-21T04:38:45.313Z,72.12
2022-10-21T04:39:45.300Z,68.78
2022-10-21T04:40:45.293Z,67.94
2022-10-21T04:41:45.325Z,71.96
2022-10-21T04:42:45.358Z,65.91
2022-10-21T04:43:45.282Z,73.50
2022-10-21T04:44:45.246Z,65.12
2022-10-21T04:45:45.225Z,65.21
2022-10-21T04:46:45.231Z,68.80
2022-10-21T04:47:45.246Z,63.32
2022-10-21T04:48:45.225Z,68.94
2022-10-21T04:49:45.220Z,63.48
2022-10-21T04:50:45.203Z,64.55
2022-10-21T04:51:45.174Z,67.91
2022-10-21T04:52:45.195Z,70.48
2022-10-21T04:53:45.225Z,68.29
2022-10-21T04:54:45.168Z,63.83
2022-10-21T04:55:45.168Z,70.74
2022-10-21T04:56:45.190Z,70.58
2022-10-21T04:57:45.182Z,66.06
2022-10-21T04:58:45.165Z,69.88
2022-10-21T04:59:45.134Z,70.10
2022-10-21T05:00:45.148Z,64.59
2022-10-21T05:01:45.114Z,69.04
2022-10-21T05:02:45.087Z,67.52
2022-10-21T05:03:45.126Z,69.73
2022-10-21T05:04:45.127Z,71.00
2022-10-21T05:05:45.115Z,69.43
2022-10-21T05:06:45.112Z,68.20
2022-10-21T05:07:45.061Z,71.33
2022-10-21T05:08:45.110Z,66.49
2022-10-21T05:09:45.078Z,63.38
2022-10-21T05:10:45.053Z,68.99
2022-10-21T05:11:45.061Z,65.11
2022-10-21T05:12:45.048Z,72.54
2022-10-21T05:13:45.105Z,72.64
2022-10-21T05:14:45.029Z,72.09
2022-10-21T05:15:45.526Z,70.00
2022-10-21T05:16:45.529Z,70.61
2022-10-21T05:17:45.020Z,69.97
2022-10-21T05:18:44.958Z,70.81
2022-10-21T05:19:45.044Z,70.25
2022-10-21T05:20:44.995Z,70.75
2022-10-21T05:21:44.974Z,68.74
2022-10-21T05:22:44.958Z,72.89
2022-10-21T05:23:44.938Z,67.56
2022-10-21T05:24:44.939Z,68.82
2022-10-21T05:25:44.913Z,69.71
2022-10-21T05:26:44.931Z,72.19
2022-10-21T05:27:44.959Z,71.14
2022-10-21T05:28:44.933Z,66.95
2022-10-21T05:29:44.898Z,69.53
2022-10-21T05:30:44.895Z,71.81
2022-10-21T05:31:44.890Z,70.10
2022-10-21T05:32:44.901Z,72.95
2022-10-21T05:33:44.862Z,62.26
2022-10-21T05:34:44.843Z,71.85
2022-10-21T05:35:44.911Z,69.04
2022-10-21T05:36:44.860Z,70.29
2022-10-21T05:37:44.866Z,63.05
2022-10-21T05:38:44.810Z,66.39
2022-10-21T05:39:44.840Z,72.76
2022-10-21T05:40:44.784Z,71.44
2022-10-21T05:41:47.814Z,68.74
2022-10-21T05:42:44.801Z,70.99
2022-10-21T05:43:44.818Z,70.88
2022-10-21T05:44:44.770Z,71.35
2022-10-21T05:45:44.781Z,70.50
2022-10-21T05:46:44.780Z,66.34
2022-10-21T05:47:44.732Z,71.20
2022-10-21T05:48:44.794Z,69.22
2022-10-21T05:49:44.757Z,70.43
2022-10-21T05:50:44.735Z,72.09
2022-10-21T05:51:44.760Z,68.91
2022-10-21T05:52:44.744Z,72.67
2022-10-21T05:53:44.705Z,67.44
2022-10-21T05:54:44.700Z,71.07
2022-10-21T05:55:44.696Z,67.78
2022-10-21T05:56:44.703Z,67.67
2022-10-21T05:57:44.752Z,64.99
2022-10-21T05:58:44.666Z,67.07
2022-10-21T05:59:44.686Z,72.62
2022-10-21T06:00:44.736Z,69.13
2022-10-21T06:01:44.669Z,67.92
2022-10-21T06:02:44.632Z,72.65
2022-10-21T06:03:44.633Z,72.98
2022-10-21T06:04:44.619Z,71.45
2022-10-21T06:05:44.622Z,71.33
2022-10-21T06:06:44.635Z,63.75
2022-10-21T06:07:44.642Z,61.97
2022-10-21T06:08:44.645Z,74.34
2022-10-21T06:09:44.598Z,64.50
2022-10-21T06:10:44.567Z,62.43
2022-10-21T06:11:44.594Z,63.02
2022-10-21T06:12:44.576Z,71.68
2022-10-21T06:13:44.539Z,69.03
2022-10-21T06:14:44.557Z,66.51
2022-10-21T06:15:48.615Z,70.20
2022-10-21T06:16:46.529Z,70.31
2022-10-21T06:17:44.584Z,71.17
2022-10-21T06:18:44.548Z,63.43
2022-10-21T06:19:47.299Z,71.84
2022-10-21T06:20:45.502Z,67.12
2022-10-21T06:21:44.480Z,68.55
2022-10-21T06:22:44.570Z,61.26
2022-10-21T06:23:44.497Z,65.81
2022-10-21T06:24:44.471Z,66.95
2022-10-21T06:25:44.449Z,67.73
2022-10-21T06:26:45.495Z,61.63
2022-10-21T06:27:44.483Z,68.41
2022-10-21T06:28:44.489Z,69.82
2022-10-21T06:29:44.464Z,67.11
2022-10-21T06:30:44.409Z,64.64
2022-10-21T06:31:44.432Z,66.97
2022-10-21T06:32:44.388Z,63.72
2022-10-21T06:33:44.435Z,65.83
2022-10-21T06:34:44.408Z,65.89
2022-10-21T06:35:44.385Z,61.65
2022-10-21T06:36:44.375Z,69.37
2022-10-21T06:37:44.389Z,68.19
2022-10-21T06:38:44.338Z,67.91
2022-10-21T06:39:44.352Z,72.81
2022-10-21T06:40:44.340Z,67.61
2022-10-21T06:41:45.156Z,68.66
2022-10-21T06:42:44.336Z,66.94
2022-10-21T06:43:44.330Z,61.04
2022-10-21T06:44:44.348Z,69.19
2022-10-21T06:45:44.320Z,68.36
2022-10-21T06:46:44.273Z,69.89
2022-10-21T06:47:44.282Z,70.60
2022-10-21T06:48:44.276Z,64.56
2022-10-21T06:49:44.282Z,68.86
2022-10-21T06:50:44.277Z,67.77
2022-10-21T06:51:44.246Z,61.65
2022-10-21T06:52:44.254Z,64.16
2022-10-21T06:53:44.228Z,62.11
2022-10-21T06:54:44.268Z,60.46
2022-10-21T06:55:44.238Z,71.92
2022-10-21T06:56:44.218Z,70.31
2022-10-21T06:57:44.243Z,67.40
2022-10-21T06:58:44.202Z,69.49
2022-10-21T06:59:44.173Z,63.48
2022-10-21T07:00:45.201Z,70.74
2022-10-21T07:02:00.961Z,65.61
2022-10-21T07:02:46.186Z,62.15
2022-10-21T07:03:44.197Z,65.38
2022-10-21T07:04:44.154Z,63.20
2022-10-21T07:05:44.169Z,61.92
2022-10-21T07:06:44.161Z,64.04
2022-10-21T07:07:45.028Z,66.70
2022-10-21T07:08:47.170Z,68.89
2022-10-21T07:09:46.166Z,64.32
2022-10-21T07:10:44.116Z,66.99
2022-10-21T07:11:44.131Z,63.48
2022-10-21T07:12:44.134Z,69.53
2022-10-21T07:13:44.127Z,59.84
2022-10-21T07:14:44.150Z,70.35
2022-10-21T07:15:44.117Z,66.76
2022-10-21T07:16:44.050Z,72.33
2022-10-21T07:17:44.079Z,62.77
2022-10-21T07:18:44.038Z,65.74
2022-10-21T07:19:44.025Z,62.46
2022-10-21T07:20:44.025Z,62.45
2022-10-21T07:21:44.063Z,63.80
2022-10-21T07:22:44.022Z,66.80
2022-10-21T07:23:43.979Z,64.28
2022-10-21T07:24:44.027Z,68.62
2022-10-21T07:25:43.991Z,68.10
2022-10-21T07:26:43.982Z,66.72
2022-10-21T07:27:47.372Z,66.75
2022-10-21T07:28:43.978Z,64.82
2022-10-21T07:29:43.994Z,67.58
2022-10-21T07:30:43.944Z,70.12
2022-10-21T07:31:43.960Z,69.06
2022-10-21T07:32:43.917Z,71.89
2022-10-21T07:33:43.921Z,67.63
2022-10-21T07:34:43.947Z,68.08
2022-10-21T07:35:43.937Z,64.20
2022-10-21T07:36:43.903Z,70.69
2022-10-21T07:37:43.925Z,69.15
2022-10-21T07:38:43.905Z,68.34
2022-10-21T07:39:43.885Z,69.41
2022-10-21T07:40:43.885Z,70.80
2022-10-21T07:41:43.862Z,66.46
2022-10-21T07:42:43.863Z,66.84
2022-10-21T07:43:43.901Z,67.87
2022-10-21T07:44:43.852Z,69.86
2022-10-21T07:45:43.844Z,67.45
2022-10-21T07:46:43.818Z,63.60
2022-10-21T07:47:43.843Z,67.49
2022-10-21T07:48:43.827Z,67.60
2022-10-21T07:49:43.823Z,65.78
2022-10-21T07:50:43.797Z,70.40
2022-10-21T07:51:43.810Z,73.21
2022-10-21T07:52:49.625Z,67.06
2022-10-21T07:53:44.789Z,68.29
2022-10-21T07:54:43.795Z,67.67
2022-10-21T07:55:43.777Z,66.67
2022-10-21T07:56:43.774Z,67.97
2022-10-21T07:57:43.800Z,70.08
2022-10-21T07:58:43.754Z,66.71
2022-10-21T07:59:43.835Z,71.12
2022-10-21T08:00:43.743Z,65.41
2022-10-21T08:01:43.742Z,68.26
2022-10-21T08:02:43.746Z,68.04
2022-10-21T08:03:43.701Z,67.08
2022-10-21T08:04:43.738Z,69.66
2022-10-21T08:05:43.693Z,67.66
2022-10-21T08:06:43.696Z,65.66
2022-10-21T08:07:43.676Z,64.74
2022-10-21T08:08:43.689Z,66.70
2022-10-21T08:09:43.718Z,68.51
2022-10-21T08:10:43.678Z,63.88
2022-10-21T08:11:43.636Z,69.29
2022-10-21T08:12:43.636Z,63.87
2022-10-21T08:13:43.637Z,64.21
2022-10-21T08:14:43.627Z,70.37
2022-10-21T08:15:43.590Z,64.54
2022-10-21T08:16:43.611Z,66.29
2022-10-21T08:17:43.596Z,62.98
2022-10-21T08:18:43.580Z,70.42
2022-10-21T08:19:43.622Z,67.53
2022-10-21T08:20:43.561Z,64.37
2022-10-21T10:30:29.867Z,73.60
2022-10-21T10:32:04.147Z,66.95
2022-10-21T10:32:29.962Z,73.24
2022-10-21T10:33:30.073Z,68.23
2022-10-21T10:35:02.334Z,71.28
2022-10-21T10:35:29.834Z,68.06
2022-10-21T10:36:29.822Z,77.03
2022-10-21T10:37:30.648Z,73.25
2022-10-21T10:38:29.944Z,72.71
2022-10-21T10:39:29.905Z,73.61
2022-10-21T10:40:29.946Z,69.68
2022-10-21T10:41:29.840Z,71.74
2022-10-21T10:43:03.733Z,72.06
2022-10-21T10:43:29.791Z,61.17
2022-10-21T10:45:03.874Z,76.27
2022-10-21T10:45:29.904Z,73.46
2022-10-21T10:47:03.322Z,68.03
2022-10-21T10:47:29.704Z,75.49
2022-10-21T10:49:03.885Z,67.25
2022-10-21T10:49:29.757Z,74.76
2022-10-21T10:50:31.243Z,73.88
2022-10-21T10:51:30.490Z,70.46
2022-10-21T10:52:29.733Z,72.70
2022-10-21T10:53:29.740Z,74.04
2022-10-21T10:54:57.394Z,71.66
2022-10-21T10:55:29.744Z,71.13
2022-10-21T10:56:29.666Z,73.76
2022-10-21T10:57:39.122Z,72.94
2022-10-21T10:58:32.270Z,73.82
2022-10-21T10:59:30.308Z,73.62
2022-10-21T11:04:39.001Z,71.54
2022-10-21T11:05:40.625Z,69.32
2022-10-21T11:07:12.110Z,75.70
2022-10-21T11:07:41.412Z,70.36
2022-10-21T11:08:39.770Z,71.09
2022-10-21T11:09:40.544Z,68.45
2022-10-21T11:10:39.687Z,73.82
2022-10-21T11:11:39.661Z,69.91
2022-10-21T11:13:33.287Z,75.88
2022-10-21T11:13:42.308Z,76.16
2022-10-21T11:14:40.666Z,73.87
2022-10-21T11:18:51.878Z,75.07
2022-10-21T11:19:52.599Z,72.23
2022-10-21T11:20:52.252Z,76.99
2022-10-21T11:22:24.085Z,75.77
2022-10-21T11:22:52.805Z,70.72
2022-10-21T11:24:25.509Z,74.34
2022-10-21T11:24:52.062Z,75.07
2022-10-21T11:25:52.783Z,76.07
2022-10-21T11:26:51.862Z,76.60
2022-10-21T11:30:57.728Z,71.08
2022-10-21T11:34:49.528Z,77.33
2022-10-21T11:35:53.116Z,73.34
2022-10-21T11:36:52.602Z,72.49
2022-10-21T11:37:50.592Z,72.38
2022-10-21T11:38:50.800Z,74.99
2022-10-21T11:39:50.741Z,72.47
2022-10-21T11:41:27.161Z,74.68
2022-10-21T11:41:50.725Z,63.40
2022-10-21T11:43:23.116Z,77.87
2022-10-21T11:43:51.138Z,76.63
2022-10-21T11:44:50.512Z,72.51
2022-10-21T11:45:50.448Z,74.69
2022-10-21T11:51:07.042Z,73.55
2022-10-21T11:52:16.373Z,75.24
2022-10-21T11:53:07.042Z,74.04
2022-10-21T12:20:47.462Z,69.86
2022-10-21T12:22:21.145Z,72.76
2022-10-21T12:23:22.246Z,74.87
2022-10-21T12:27:45.454Z,71.28
2022-10-21T12:28:47.431Z,76.45
2022-10-21T12:29:46.757Z,73.64
2022-10-21T12:30:47.271Z,75.32
2022-10-21T12:31:47.528Z,75.90
2022-10-21T12:32:46.757Z,72.36
2022-10-21T12:33:46.789Z,71.97
2022-10-21T12:34:46.663Z,74.64
2022-10-21T12:35:46.685Z,71.46
2022-10-21T12:36:46.728Z,73.79
2022-10-21T12:37:47.439Z,72.92
2022-10-21T12:38:47.434Z,72.62
2022-10-21T12:39:47.825Z,76.02
2022-10-21T12:40:46.605Z,73.83
2022-10-21T12:41:46.591Z,76.44
2022-10-21T12:42:46.655Z,75.95
2022-10-21T12:43:46.524Z,74.40
2022-10-21T12:44:47.051Z,76.72
2022-10-21T12:45:46.566Z,76.64
2022-10-21T12:46:46.592Z,74.14
2022-10-21T12:47:46.565Z,74.81
2022-10-21T12:48:48.638Z,72.12
2022-10-21T12:52:45.262Z,70.99
2022-10-21T12:53:47.085Z,75.67
2022-10-21T12:54:47.597Z,72.61
2022-10-21T12:55:46.809Z,71.27
2022-10-21T12:56:47.031Z,72.97
2022-10-21T12:57:46.442Z,75.95
2022-10-21T12:58:46.566Z,73.54
2022-10-21T12:59:49.393Z,74.26
2022-10-21T13:01:20.148Z,72.51
2022-10-21T13:06:14.761Z,72.51
2022-10-21T13:07:17.090Z,74.23
2022-10-21T13:08:15.895Z,74.05
2022-10-21T13:09:15.944Z,72.56
2022-10-21T13:10:16.594Z,73.17
2022-10-21T13:11:16.595Z,73.02
2022-10-21T13:12:16.423Z,72.97
2022-10-21T13:13:17.106Z,72.21
2022-10-21T13:14:16.634Z,70.43
2022-10-21T13:15:16.263Z,72.76
2022-10-21T13:16:16.601Z,71.35
2022-10-21T13:17:16.297Z,72.66
2022-10-21T13:18:15.933Z,72.27
2022-10-21T13:19:15.785Z,73.88
2022-10-21T13:20:15.871Z,70.64
2022-10-21T13:21:18.306Z,74.39
2022-10-21T13:22:17.834Z,72.07
2022-10-21T13:23:15.768Z,73.32
2022-10-21T13:24:15.936Z,74.06
2022-10-21T13:25:16.777Z,72.14
2022-10-21T13:26:15.724Z,72.47
2022-10-21T13:27:16.602Z,73.31
2022-10-21T13:28:16.452Z,73.35
2022-10-21T13:29:16.572Z,74.23
2022-10-21T13:30:15.687Z,72.20
2022-10-21T13:31:15.592Z,67.50
2022-10-21T13:32:15.677Z,70.81
2022-10-21T13:33:15.656Z,72.53
2022-10-21T13:34:15.640Z,71.75
2022-10-21T13:35:16.101Z,72.31
2022-10-21T13:36:16.604Z,70.16
2022-10-21T13:37:15.784Z,72.67
2022-10-21T13:38:17.035Z,70.80
2022-10-21T13:39:15.674Z,68.79
2022-10-21T13:40:15.636Z,72.54
2022-10-21T13:41:16.099Z,73.90
2022-10-21T13:42:17.492Z,71.90
2022-10-21T13:43:17.084Z,74.98
2022-10-21T13:44:15.789Z,72.25
2022-10-21T13:45:15.998Z,70.70
2022-10-21T13:46:15.653Z,69.84
2022-10-21T13:47:15.971Z,73.06
2022-10-21T13:48:15.789Z,71.89
2022-10-21T13:49:15.755Z,71.29
2022-10-21T13:50:15.543Z,67.99
2022-10-21T13:51:17.105Z,73.40
2022-10-21T13:52:15.607Z,73.06
2022-10-21T13:53:15.564Z,71.79
2022-10-21T13:54:15.695Z,67.92
2022-10-21T13:55:15.479Z,70.81
2022-10-21T13:56:16.104Z,71.66
2022-10-21T13:57:16.105Z,73.88
2022-10-21T13:58:15.535Z,71.97
2022-10-21T13:59:15.417Z,71.93
2022-10-21T14:00:16.451Z,68.71
2022-10-21T14:01:15.547Z,68.72
2022-10-21T14:02:16.460Z,74.52
2022-10-21T14:03:15.420Z,73.85
2022-10-21T14:04:15.551Z,69.37
2022-10-21T14:05:15.428Z,72.11
2022-10-21T14:06:15.562Z,73.11
2022-10-21T14:07:15.443Z,73.78
2022-10-21T14:08:15.484Z,72.86
2022-10-21T14:09:16.145Z,69.29
2022-10-21T14:10:15.416Z,73.95
2022-10-21T14:11:15.770Z,70.85
2022-10-21T14:12:15.973Z,69.09
2022-10-21T14:13:15.435Z,71.87
2022-10-21T14:14:15.442Z,73.30
2022-10-21T14:15:15.301Z,68.60
2022-10-21T14:16:15.282Z,72.54
2022-10-21T14:17:16.118Z,72.01
2022-10-21T14:18:15.312Z,72.63
2022-10-21T14:19:15.330Z,71.46
2022-10-21T14:20:15.344Z,72.71
2022-10-21T14:25:20.631Z,71.78
2022-10-21T14:26:12.014Z,71.74
2022-10-21T14:27:11.991Z,70.67
2022-10-21T14:28:11.974Z,68.90
2022-10-21T14:29:13.173Z,69.23
2022-10-21T14:30:13.150Z,65.60
2022-10-21T14:31:13.118Z,71.47
2022-10-21T14:32:13.103Z,73.60
2022-10-21T14:33:13.138Z,68.86
2022-10-21T14:34:13.103Z,69.62
2022-10-21T14:35:13.114Z,72.11
2022-10-21T14:36:14.059Z,72.13
2022-10-21T14:37:13.094Z,71.50
2022-10-21T14:38:13.097Z,73.53
2022-10-21T14:39:13.083Z,71.11
2022-10-21T14:40:13.107Z,70.86
2022-10-21T14:41:13.057Z,72.27
2022-10-21T14:42:13.040Z,67.59
2022-10-21T14:43:13.044Z,71.64
2022-10-21T14:44:13.032Z,72.54
2022-10-21T14:45:12.995Z,69.83
2022-10-21T14:46:13.011Z,72.68
2022-10-21T14:47:13.010Z,70.16
2022-10-21T14:48:12.992Z,69.78
2022-10-21T14:49:13.034Z,70.17
2022-10-21T14:50:13.337Z,72.96
2022-10-21T14:51:16.366Z,73.64
2022-10-21T14:52:13.949Z,71.84
2022-10-21T14:53:12.927Z,64.20
2022-10-21T14:54:12.918Z,73.03
2022-10-21T14:55:13.792Z,70.40
2022-10-21T14:56:13.781Z,70.96
2022-10-21T14:57:12.937Z,69.77
2022-10-21T14:58:12.929Z,62.92
2022-10-21T14:59:12.914Z,67.89
2022-10-21T15:00:12.934Z,71.81
2022-10-21T15:01:12.882Z,73.14
2022-10-21T15:02:12.879Z,69.58
2022-10-21T15:03:12.937Z,69.33
2022-10-21T15:04:12.895Z,72.58
2022-10-21T15:05:12.905Z,73.32
2022-10-21T15:06:12.910Z,70.10
2022-10-21T15:07:12.962Z,67.91
2022-10-21T15:08:12.887Z,71.42
2022-10-21T15:09:12.881Z,70.22
2022-10-21T15:10:18.687Z,65.90
2022-10-21T15:11:12.820Z,69.54
2022-10-21T15:12:12.786Z,71.50
2022-10-21T15:13:12.800Z,70.45
2022-10-21T15:14:12.781Z,70.93
2022-10-21T15:15:12.771Z,70.65
2022-10-21T15:16:12.755Z,69.83
2022-10-21T15:17:12.800Z,68.92
2022-10-21T15:18:12.772Z,67.81
2022-10-21T15:19:12.789Z,73.43
2022-10-21T15:20:12.727Z,64.57
2022-10-21T15:21:12.749Z,73.77
2022-10-21T15:22:12.722Z,70.57
2022-10-21T15:23:12.859Z,71.78
2022-10-21T15:24:13.706Z,67.60
2022-10-21T15:25:12.734Z,66.23
2022-10-21T15:26:12.746Z,70.19
2022-10-21T15:27:12.681Z,67.34
2022-10-21T15:28:12.679Z,68.20
2022-10-21T15:29:12.662Z,70.22
2022-10-21T15:30:12.679Z,69.52
2022-10-21T15:31:12.660Z,68.50
2022-10-21T15:32:12.681Z,70.02
2022-10-21T15:33:12.648Z,71.91
2022-10-21T15:34:12.621Z,68.40
2022-10-21T15:35:12.618Z,72.84
2022-10-21T15:36:12.673Z,66.16
2022-10-21T15:37:12.630Z,70.35
2022-10-21T15:38:12.637Z,70.11
2022-10-21T15:39:12.584Z,63.83
2022-10-21T15:40:12.565Z,68.19
2022-10-21T15:41:12.583Z,64.29
2022-10-21T15:42:12.554Z,66.60
2022-10-21T15:43:12.624Z,69.30
2022-10-21T15:44:12.529Z,69.40
2022-10-21T15:45:13.516Z,63.43
2022-10-21T15:46:12.544Z,70.25
2022-10-21T15:47:12.570Z,69.53
2022-10-21T15:48:12.550Z,68.89
2022-10-21T15:49:12.542Z,68.36
2022-10-21T15:50:12.527Z,69.63
2022-10-21T15:51:12.507Z,69.98
2022-10-21T15:52:12.532Z,69.06
2022-10-21T15:53:12.574Z,68.69
2022-10-21T15:54:12.515Z,69.68
2022-10-21T15:55:12.463Z,64.71
2022-10-21T15:56:12.469Z,71.43
2022-10-21T15:57:12.535Z,69.95
2022-10-21T15:58:12.452Z,66.39
2022-10-21T15:59:12.481Z,69.63
2022-10-21T16:00:12.399Z,64.24
2022-10-21T16:01:12.562Z,68.44
2022-10-21T16:02:15.445Z,68.16
2022-10-21T16:03:12.427Z,68.32
2022-10-21T16:04:12.402Z,70.71
2022-10-21T16:05:12.449Z,69.02
2022-10-21T16:06:12.399Z,69.14
2022-10-21T16:07:12.358Z,63.64
2022-10-21T16:08:12.378Z,68.16
2022-10-21T16:09:14.704Z,68.83
2022-10-21T16:10:13.371Z,70.64
2022-10-21T16:12:13.345Z,65.64
2022-10-21T16:13:12.378Z,67.32
2022-10-21T16:14:12.302Z,68.09
2022-10-21T16:15:12.297Z,63.17
2022-10-21T16:16:12.315Z,68.15
2022-10-21T16:17:12.287Z,66.49
2022-10-21T16:18:12.310Z,69.92
2022-10-21T16:19:12.290Z,65.83
2022-10-21T16:20:12.276Z,72.13
2022-10-21T16:21:13.377Z,68.09
2022-10-21T16:22:12.251Z,69.61
2022-10-21T16:23:12.268Z,65.91
2022-10-21T16:24:12.256Z,69.16
2022-10-21T16:25:12.254Z,68.51
2022-10-21T16:26:12.247Z,70.56
2022-10-21T16:27:12.229Z,63.87
2022-10-21T16:28:12.254Z,65.99
2022-10-21T16:29:12.381Z,69.65
2022-10-21T16:30:12.212Z,69.27
2022-10-21T16:31:12.168Z,60.53
2022-10-21T16:32:12.168Z,70.10
2022-10-21T16:33:12.190Z,65.88
2022-10-21T16:34:12.152Z,69.62
2022-10-21T16:35:12.177Z,69.70
2022-10-21T16:36:12.638Z,67.90
2022-10-21T16:37:12.156Z,70.22
2022-10-21T16:38:12.442Z,68.31
2022-10-21T16:39:12.174Z,68.52
2022-10-21T16:40:12.101Z,69.05
2022-10-21T16:41:12.088Z,66.52
2022-10-21T16:42:12.122Z,71.07
2022-10-21T16:43:12.100Z,67.59
2022-10-21T16:44:12.190Z,60.17
2022-10-21T16:45:12.074Z,66.00
2022-10-21T16:46:12.085Z,69.47
2022-10-21T16:47:12.159Z,69.54
2022-10-21T16:48:12.058Z,68.55
2022-10-21T16:49:12.936Z,66.28
2022-10-21T16:50:13.051Z,68.19
2022-10-21T16:51:12.022Z,69.24
2022-10-21T16:52:12.035Z,69.72
2022-10-21T16:53:12.004Z,63.52
2022-10-21T16:54:11.987Z,62.52
2022-10-21T16:55:12.024Z,66.93
2022-10-21T16:56:12.019Z,61.98
2022-10-21T16:57:12.007Z,56.23
2022-10-21T16:58:11.980Z,64.01
2022-10-21T16:59:11.984Z,63.50
2022-10-21T17:00:11.954Z,66.65
2022-10-21T17:01:12.059Z,64.87
2022-10-21T17:02:11.946Z,62.25
2022-10-21T17:03:11.930Z,66.47
2022-10-21T17:04:11.939Z,59.63
2022-10-21T17:05:11.919Z,66.59
2022-10-21T17:06:12.000Z,65.22
2022-10-21T17:07:11.951Z,65.72
2022-10-21T17:08:12.648Z,63.70
2022-10-21T17:09:12.084Z,57.65
2022-10-21T17:10:11.886Z,65.18
2022-10-21T17:11:13.108Z,69.56
2022-10-21T17:12:11.913Z,62.63
2022-10-21T17:13:11.873Z,59.63
2022-10-21T17:14:11.900Z,65.62
2022-10-21T17:15:11.827Z,64.37
2022-10-21T17:16:11.833Z,60.25
2022-10-21T17:17:11.820Z,66.51
2022-10-21T17:18:15.407Z,64.92
2022-10-21T17:19:12.833Z,70.16
2022-10-21T17:20:11.800Z,64.15
2022-10-21T17:21:11.806Z,67.36
2022-10-21T17:22:11.785Z,63.11
2022-10-21T17:23:12.329Z,61.75
2022-10-21T17:24:11.770Z,62.62
2022-10-21T17:25:11.788Z,66.82
2022-10-21T17:26:11.814Z,65.27
2022-10-21T17:27:14.663Z,67.16
2022-10-21T17:28:12.812Z,65.15
2022-10-21T17:29:11.790Z,65.38
2022-10-21T17:30:11.728Z,66.94
2022-10-21T17:31:11.730Z,61.94
2022-10-21T17:32:11.754Z,60.53
2022-10-21T17:33:14.110Z,67.44
2022-10-21T17:34:11.703Z,65.50
2022-10-21T17:35:11.708Z,66.63
2022-10-21T17:36:11.658Z,61.23
2022-10-21T17:37:11.777Z,62.12
2022-10-21T17:38:11.762Z,58.68
2022-10-21T17:39:11.750Z,67.24
2022-10-21T17:40:11.700Z,64.53
2022-10-21T17:41:11.659Z,63.73
2022-10-21T17:42:11.620Z,58.70
2022-10-21T17:43:11.672Z,63.23
2022-10-21T17:44:11.718Z,63.49
2022-10-21T17:45:11.633Z,66.74
2022-10-21T17:46:13.117Z,67.40
2022-10-21T17:47:11.687Z,54.66
2022-10-21T17:48:11.655Z,62.94
2022-10-21T17:49:11.619Z,65.63
2022-10-21T17:50:13.797Z,48.01
2022-10-21T17:51:11.670Z,60.54
2022-10-21T17:52:11.567Z,66.11
2022-10-21T17:53:12.208Z,60.79
2022-10-21T17:54:11.570Z,62.08
2022-10-21T17:55:11.650Z,65.86
2022-10-21T17:56:11.570Z,59.38
2022-10-21T17:57:11.583Z,63.52
2022-10-21T17:58:11.518Z,59.92
2022-10-21T17:59:12.413Z,63.57
2022-10-21T18:00:11.538Z,63.26
2022-10-21T18:01:11.618Z,61.12
2022-10-21T18:02:11.536Z,61.41
2022-10-21T18:03:11.506Z,62.61
2022-10-21T18:04:11.463Z,63.97
2022-10-21T18:05:11.527Z,61.14
2022-10-21T18:06:11.531Z,62.96
2022-10-21T18:07:13.216Z,67.04
2022-10-21T18:08:11.517Z,60.42
2022-10-21T18:09:11.614Z,59.66
2022-10-21T18:10:11.502Z,64.08
2022-10-21T18:11:11.501Z,62.35
2022-10-21T18:12:11.470Z,61.53
2022-10-21T18:13:11.452Z,57.32
2022-10-21T18:14:11.423Z,65.57
2022-10-21T18:15:11.395Z,59.71
2022-10-21T18:16:11.415Z,59.19
2022-10-21T18:17:11.391Z,55.67
2022-10-21T18:18:11.408Z,61.09
2022-10-21T18:19:11.408Z,60.65
2022-10-21T18:20:11.459Z,55.81
2022-10-21T18:21:11.437Z,63.51
2022-10-21T18:22:11.425Z,61.97